ADDS METAR Data INFO
IDs: Format: Raw Decoded Include TAF

Data at: 2012 UTC 19 Oct 2017

KSTP 191953Z AUTO 19011KT 130V210 10SM CLR 22/02 A2999 RMK AO2 SLP155 T02220022
KSTP 191853Z 15010KT 130V190 10SM CLR 21/03 A3002 RMK AO2 SLP164 T02110028
KSTP 191753Z 14008KT 10SM CLR 19/04 A3005 RMK AO2 SLP173 T01890044 10189 20044 58016
KSTP 191653Z 13009KT 10SM CLR 16/04 A3007 RMK AO2 SLP182 T01560044
KSTP 191553Z 13004KT 10SM CLR 12/04 A3009 RMK AO2 SLP188 T01220039
KSTP 191453Z 12004KT 10SM CLR 09/03 A3009 RMK AO2 SLP190 T00940033 53010
KSTP 191353Z 13006KT 10SM CLR 07/03 A3008 RMK AO2 SLP186 T00720033
KSTP 191253Z 14005KT 10SM CLR 06/03 A3006 RMK AO2 SLP181 T00560033
KSTP 191153Z 00000KT 10SM CLR 05/04 A3006 RMK AO2 SLP181 T00500039 10106 20044 51007
KSTP 191053Z 00000KT 10SM CLR 05/02 A3006 RMK AO2 SLP179 T00500022
KSTP 190953Z AUTO 00000KT 10SM CLR 06/03 A3005 RMK AO2 SLP175 T00610028
KSTP 190853Z AUTO 36003KT 10SM CLR 07/03 A3004 RMK AO2 SLP171 T00720028 51006
KSTP 190753Z AUTO 00000KT 10SM CLR 07/03 A3004 RMK AO2 SLP171 T00720033
KSTP 190653Z AUTO 00000KT 10SM CLR 09/02 A3004 RMK AO2 SLP170 T00890022
KSTP 190553Z AUTO 00000KT 10SM CLR 10/M02 A3002 RMK AO2 SLP165 T01001017 10167 20094 402170083 50007
KSTP 190453Z AUTO 27005KT 10SM CLR 11/M02 A3002 RMK AO2 SLP166 T01111017
KSTP 190353Z AUTO 27009KT 10SM CLR 12/M03 A3001 RMK AO2 SLP163 T01221028
KSTP 190253Z AUTO 28011KT 10SM CLR 13/M04 A3000 RMK AO2 SLP157 T01331039 51023
KSTP 190153Z 29011KT 10SM CLR 13/M04 A2998 RMK AO2 SLP151 T01331044
KSTP 190053Z 28011KT 10SM CLR 15/M07 A2996 RMK AO2 SLP145 T01501067
KSTP 182353Z 28012KT 10SM CLR 17/M08 A2993 RMK AO2 PK WND 30027/2332 SLP134 T01671083 10217 20167 53031
KSTP 182253Z 27011KT 10SM CLR 19/M03 A2988 RMK AO2 SLP115 T01891028
KSTP 182153Z 28012G27KT 10SM CLR 21/M03 A2986 RMK AO2 PK WND 29027/2145 SLP109 T02111028
KSTP 182053Z 24010KT 10SM CLR 21/06 A2984 RMK AO2 SLP101 T02110061 58000
KSTP 181953Z AUTO 28008KT 10SM CLR 21/07 A2984 RMK AO2 SLP103 T02060072
KSTP 181853Z 25010KT 10SM CLR 19/08 A2985 RMK AO2 SLP105 T01940083
KSTP 181753Z 24010KT 10SM CLR 19/09 A2984 RMK AO2 SLP101 T01890094 10189 20083 53011
KSTP 181653Z 24010KT 10SM CLR 17/09 A2984 RMK AO2 SLP102 T01720094
KSTP 181553Z 16009KT 10SM CLR 16/10 A2980 RMK AO2 SLP090 T01560100
KSTP 181453Z 15009KT 10SM CLR 13/09 A2980 RMK AO2 SLP091 T01330094 56014
KSTP 181353Z 14007KT 10SM CLR 11/08 A2982 RMK AO2 SLP097 T01060083
KSTP 181253Z 14004KT 10SM CLR 09/08 A2983 RMK AO2 SLP102 T00890078
KSTP 181153Z 14007KT 10SM CLR 08/07 A2985 RMK AO2 SLP107 T00830072 10117 20083 58009
KSTP 181053Z 15006KT 10SM CLR 09/07 A2987 RMK AO2 SLP115 T00890072
KSTP 180953Z AUTO 14004KT 10SM CLR 09/07 A2987 RMK AO2 SLP112 T00940072
KSTP 180853Z AUTO 13006KT 10SM CLR 11/08 A2987 RMK AO2 SLP114 T01060078 58010